Time;durP1;ratioP1;P1;durP2;ratioP2;P2;SDS_P1;SDS_P2;PMS_P1;PMS_P2;Temp;Humidity;BMP_temperature;BMP_pressure;BME280_temperature;BME280_humidity;BME280_pressure;Samples;Min_cycle;Max_cycle;Signal;HPM_P1;HPM_P2
2023/01/22 00:01:01;;;;;;;17.20;10.70;;;-1.70;99.90;;;;;;5033073;28;20125;-72
2023/01/22 00:03:27;;;;;;;18.17;11.00;;;-1.70;99.90;;;;;;5024846;28;20044;-72
2023/01/22 00:05:52;;;;;;;16.43;9.87;;;-1.70;99.90;;;;;;5049043;28;20406;-72
2023/01/22 00:08:19;;;;;;;17.47;10.43;;;-1.70;99.90;;;;;;5048592;28;20402;-72
2023/01/22 00:10:52;;;;;;;16.20;9.90;;;-1.70;99.90;;;;;;5049230;28;20049;-72
2023/01/22 00:13:19;;;;;;;18.00;9.95;;;-1.70;99.90;;;;;;5050598;28;20041;-72
2023/01/22 00:15:44;;;;;;;17.08;10.05;;;-1.60;99.90;;;;;;5031377;28;20048;-72
2023/01/22 00:18:10;;;;;;;17.30;10.43;;;-1.50;99.90;;;;;;5047169;28;20044;-72
2023/01/22 00:20:36;;;;;;;20.60;11.87;;;-1.50;99.90;;;;;;5013162;28;20034;-72
2023/01/22 00:23:02;;;;;;;20.57;11.63;;;-1.40;99.90;;;;;;5048351;28;20063;-72
2023/01/22 00:25:28;;;;;;;17.52;11.05;;;-1.40;99.90;;;;;;5033281;28;20203;-72
2023/01/22 00:27:54;;;;;;;18.43;10.43;;;-1.40;99.90;;;;;;5048293;28;20037;-72
2023/01/22 00:30:20;;;;;;;18.92;9.95;;;-1.30;99.90;;;;;;5011623;28;20052;-72
2023/01/22 00:32:46;;;;;;;17.55;9.52;;;-1.30;99.90;;;;;;5049164;28;20127;-72
2023/01/22 00:35:12;;;;;;;14.53;9.43;;;-1.30;99.90;;;;;;5048206;28;20037;-72
2023/01/22 00:37:37;;;;;;;16.30;8.75;;;-1.40;99.90;;;;;;5031391;28;20112;-72
2023/01/22 00:40:04;;;;;;;14.03;8.70;;;-1.40;99.90;;;;;;5049587;28;20493;-72
2023/01/22 00:42:30;;;;;;;13.43;8.75;;;-1.50;99.90;;;;;;5045792;28;20049;-72
2023/01/22 00:44:58;;;;;;;14.45;8.77;;;-1.50;99.90;;;;;;5052658;28;20048;-72
2023/01/22 00:47:24;;;;;;;15.07;9.18;;;-1.50;99.90;;;;;;5025048;28;20048;-72
2023/01/22 00:49:50;;;;;;;16.05;8.57;;;-1.50;99.90;;;;;;5025028;28;20532;-72
2023/01/22 00:52:16;;;;;;;14.30;8.63;;;-1.60;99.90;;;;;;5033333;28;20033;-72
2023/01/22 00:54:42;;;;;;;16.17;9.37;;;-1.60;99.90;;;;;;5011455;28;20092;-72
2023/01/22 00:57:07;;;;;;;14.00;8.40;;;-1.70;99.90;;;;;;5028585;28;20041;-72
2023/01/22 00:59:33;;;;;;;13.17;8.43;;;-1.70;99.90;;;;;;5036250;28;20043;-72
2023/01/22 01:01:59;;;;;;;12.77;7.87;;;-1.70;99.90;;;;;;5032246;28;20071;-72
2023/01/22 01:04:24;;;;;;;12.80;7.43;;;-1.80;99.90;;;;;;5049779;28;20032;-72
2023/01/22 01:06:50;;;;;;;13.90;7.50;;;-1.80;99.90;;;;;;5030514;28;20053;-72
2023/01/22 01:09:16;;;;;;;16.73;8.60;;;-1.80;99.90;;;;;;5049914;28;20048;-72
2023/01/22 01:11:42;;;;;;;14.03;8.63;;;-1.90;99.90;;;;;;5029713;28;20037;-72
2023/01/22 01:14:08;;;;;;;14.27;7.60;;;-1.90;99.90;;;;;;5038604;28;20102;-72
2023/01/22 01:16:34;;;;;;;12.63;8.02;;;-1.90;99.90;;;;;;5037087;28;20060;-72
2023/01/22 01:19:02;;;;;;;14.20;8.93;;;-2.00;99.90;;;;;;5047749;28;20037;-72
2023/01/22 01:21:28;;;;;;;13.60;8.25;;;-2.00;99.90;;;;;;5030800;28;20198;-72
2023/01/22 01:23:56;;;;;;;16.27;8.35;;;-2.00;99.90;;;;;;5053165;28;20029;-72
2023/01/22 01:26:21;;;;;;;14.73;7.93;;;-2.00;99.90;;;;;;5047054;28;20126;-72
2023/01/22 01:28:48;;;;;;;14.00;8.37;;;-2.10;99.90;;;;;;5043439;28;20505;-72
2023/01/22 01:31:15;;;;;;;12.77;8.07;;;-2.10;99.90;;;;;;5046316;28;20041;-72
2023/01/22 01:33:41;;;;;;;14.13;8.38;;;-2.20;99.90;;;;;;5051888;28;20041;-72
2023/01/22 01:36:14;;;;;;;11.85;7.82;;;-2.20;99.90;;;;;;5067926;28;20091;-72
2023/01/22 01:38:40;;;;;;;15.13;8.68;;;-2.20;99.90;;;;;;5041805;28;20037;-71
2023/01/22 01:41:06;;;;;;;12.93;7.70;;;-2.20;99.90;;;;;;5030641;28;20504;-72
2023/01/22 01:43:33;;;;;;;12.80;7.88;;;-2.30;99.90;;;;;;5049060;28;20041;-72
2023/01/22 01:46:01;;;;;;;14.02;7.90;;;-2.30;99.90;;;;;;5052007;28;20064;-72
2023/01/22 01:48:46;;;;;;;12.63;8.50;;;-2.30;99.90;;;;;;5029940;28;20051;-72
2023/01/22 01:51:24;;;;;;;12.32;7.55;;;-2.40;99.90;;;;;;5047956;28;20040;-72
2023/01/22 01:53:50;;;;;;;13.20;7.88;;;-2.40;99.90;;;;;;5038269;28;20541;-72
2023/01/22 01:56:23;;;;;;;13.85;7.75;;;-2.40;99.90;;;;;;5028039;28;20045;-72
2023/01/22 01:58:54;;;;;;;12.70;7.72;;;-2.40;99.90;;;;;;5047832;28;20049;-72
2023/01/22 02:01:21;;;;;;;13.32;8.13;;;-2.30;99.90;;;;;;5047153;28;20416;-71
2023/01/22 02:03:46;;;;;;;15.23;8.57;;;-2.30;99.90;;;;;;5049069;28;20041;-72
2023/01/22 02:06:18;;;;;;;13.40;8.17;;;-2.30;99.90;;;;;;5049907;28;20542;-72
2023/01/22 02:08:46;;;;;;;11.93;7.63;;;-2.30;99.90;;;;;;5031672;28;20099;-72
2023/01/22 02:11:13;;;;;;;13.43;7.90;;;-2.20;99.90;;;;;;5048882;28;20080;-72
2023/01/22 02:13:43;;;;;;;13.52;7.95;;;-2.10;99.90;;;;;;5051306;28;20549;-72
2023/01/22 02:16:10;;;;;;;18.35;8.68;;;-2.00;99.90;;;;;;5036263;28;20078;-72
2023/01/22 02:18:36;;;;;;;15.48;8.68;;;-2.00;99.90;;;;;;5032269;28;20148;-72
2023/01/22 02:21:02;;;;;;;15.87;8.40;;;-2.00;99.90;;;;;;5032375;28;20123;-71
2023/01/22 02:23:30;;;;;;;17.53;8.40;;;-2.00;99.90;;;;;;5048926;28;20128;-71
2023/01/22 02:25:57;;;;;;;13.73;7.75;;;-2.00;99.90;;;;;;5049304;28;20045;-71
2023/01/22 02:28:23;;;;;;;17.95;10.35;;;-1.90;99.90;;;;;;5049375;28;20076;-72
2023/01/22 02:30:49;;;;;;;17.27;9.50;;;-1.90;99.90;;;;;;5048964;28;20986;-72
2023/01/22 02:33:16;;;;;;;15.67;8.93;;;-1.90;99.90;;;;;;5048356;28;20076;-71
2023/01/22 02:35:41;;;;;;;14.00;8.18;;;-1.90;99.90;;;;;;5032015;28;20139;-71
2023/01/22 02:38:07;;;;;;;16.63;8.53;;;-1.90;99.90;;;;;;5045896;28;20119;-71
2023/01/22 02:40:33;;;;;;;16.20;8.27;;;-1.80;99.90;;;;;;5051151;28;20110;-71
2023/01/22 02:42:59;;;;;;;14.90;8.37;;;-1.80;99.90;;;;;;5031837;28;20045;-71
2023/01/22 02:45:24;;;;;;;14.50;7.95;;;-1.80;99.90;;;;;;5030681;28;20338;-72
2023/01/22 02:47:50;;;;;;;12.47;7.50;;;-1.80;99.90;;;;;;5060182;28;20116;-72
2023/01/22 02:50:17;;;;;;;16.27;7.20;;;-1.80;99.90;;;;;;5048918;28;20047;-71
2023/01/22 02:52:42;;;;;;;11.70;7.47;;;-1.80;99.90;;;;;;5049238;28;20375;-72
2023/01/22 02:55:09;;;;;;;17.17;8.13;;;-1.80;99.90;;;;;;5069422;28;20515;-72
2023/01/22 02:57:34;;;;;;;14.10;7.47;;;-1.80;99.90;;;;;;5047889;28;20055;-72
2023/01/22 03:00:00;;;;;;;14.73;8.13;;;-1.80;99.90;;;;;;5048935;28;20045;-72
2023/01/22 03:02:26;;;;;;;14.67;7.90;;;-1.80;99.90;;;;;;5049483;28;20089;-71
2023/01/22 03:05:02;;;;;;;13.20;7.30;;;-1.70;99.90;;;;;;5055537;28;20037;-72
2023/01/22 03:07:40;;;;;;;13.18;8.07;;;-1.70;99.90;;;;;;5033533;28;20061;-71
2023/01/22 03:10:12;;;;;;;13.68;7.63;;;-1.70;99.90;;;;;;5034088;28;20076;-71
2023/01/22 03:23:36;;;;;;;16.48;7.32;;;-1.60;99.90;;;;;;5036511;28;20053;-71
2023/01/22 03:26:02;;;;;;;14.13;7.13;;;-1.50;99.90;;;;;;5034192;28;20043;-71
2023/01/22 03:28:27;;;;;;;13.20;7.60;;;-1.50;99.90;;;;;;5055855;28;20099;-71
2023/01/22 03:30:54;;;;;;;13.80;7.73;;;-1.40;99.90;;;;;;5051616;28;20457;-71
2023/01/22 03:33:19;;;;;;;13.50;7.75;;;-1.40;99.90;;;;;;5057934;28;20079;-71
2023/01/22 03:35:45;;;;;;;14.27;8.50;;;-1.40;99.90;;;;;;5052355;28;20045;-71
2023/01/22 03:38:11;;;;;;;12.97;7.43;;;-1.30;99.90;;;;;;5054659;28;20095;-71
2023/01/22 03:40:37;;;;;;;13.83;7.33;;;-1.30;99.90;;;;;;5033518;28;20121;-72
2023/01/22 03:43:02;;;;;;;18.47;7.53;;;-1.20;99.90;;;;;;5017025;28;20377;-72
2023/01/22 03:45:28;;;;;;;11.43;6.47;;;-1.20;99.90;;;;;;5052659;28;20056;-72
2023/01/22 03:47:54;;;;;;;15.37;7.47;;;-1.10;99.90;;;;;;5052869;28;20041;-72
2023/01/22 03:50:19;;;;;;;11.47;6.77;;;-1.00;99.90;;;;;;5052421;28;20045;-71
2023/01/22 03:52:45;;;;;;;11.10;6.60;;;-0.90;99.90;;;;;;5051927;28;20303;-71
2023/01/22 03:55:11;;;;;;;13.53;6.47;;;-0.80;99.90;;;;;;5052561;28;20120;-72
2023/01/22 03:57:36;;;;;;;14.10;6.03;;;-0.80;99.90;;;;;;5052486;28;20051;-72
2023/01/22 04:00:06;;;;;;;12.20;5.97;;;-0.80;99.90;;;;;;5053915;28;20049;-72
2023/01/22 04:02:33;;;;;;;13.05;5.78;;;-0.80;99.90;;;;;;5035565;28;20043;-72
2023/01/22 04:04:58;;;;;;;12.30;5.50;;;-0.90;99.90;;;;;;5049416;28;20051;-72
2023/01/22 04:07:24;;;;;;;11.60;4.97;;;-0.80;99.90;;;;;;5051191;28;20052;-71
2023/01/22 04:09:51;;;;;;;8.47;4.77;;;-0.80;99.90;;;;;;5018696;28;20040;-72
2023/01/22 04:12:17;;;;;;;11.57;5.10;;;-0.80;99.90;;;;;;5051466;28;20047;-71
2023/01/22 04:14:42;;;;;;;10.20;4.82;;;-0.80;99.90;;;;;;5048661;28;20115;-72
2023/01/22 04:17:08;;;;;;;8.97;5.07;;;-0.80;99.90;;;;;;5025029;28;20471;-72
2023/01/22 04:19:34;;;;;;;7.90;4.33;;;-0.70;99.90;;;;;;5034977;28;20059;-72
2023/01/22 04:21:59;;;;;;;11.50;4.60;;;-0.80;99.90;;;;;;5027136;28;20048;-72
2023/01/22 04:24:25;;;;;;;8.60;4.53;;;-0.80;99.90;;;;;;5030292;28;20040;-72
2023/01/22 04:26:51;;;;;;;10.97;4.47;;;-0.70;99.90;;;;;;5030524;28;20408;-72
2023/01/22 04:29:17;;;;;;;9.07;4.78;;;-0.80;99.90;;;;;;5032393;28;20053;-72
2023/01/22 04:31:43;;;;;;;10.40;5.70;;;-0.80;99.90;;;;;;5030155;28;20061;-72
2023/01/22 04:34:09;;;;;;;9.40;5.03;;;-0.80;99.90;;;;;;5051055;28;20080;-72
2023/01/22 04:36:35;;;;;;;12.23;4.50;;;-0.70;99.90;;;;;;5030265;28;20037;-72
2023/01/22 04:39:00;;;;;;;9.17;4.33;;;-0.70;99.90;;;;;;5050935;28;20416;-71
2023/01/22 04:41:26;;;;;;;8.87;4.77;;;-0.60;99.90;;;;;;5048814;28;20040;-71
2023/01/22 04:43:52;;;;;;;8.93;4.30;;;-0.60;99.90;;;;;;5034597;28;20467;-72
2023/01/22 04:46:18;;;;;;;12.27;4.83;;;-0.60;99.90;;;;;;5011954;28;20056;-71
2023/01/22 04:48:45;;;;;;;10.03;4.70;;;-0.50;99.90;;;;;;5048653;28;20496;-71
2023/01/22 04:51:11;;;;;;;6.60;4.60;;;-0.40;99.90;;;;;;5052032;28;20116;-72
2023/01/22 04:53:37;;;;;;;10.65;4.68;;;-0.40;99.90;;;;;;5036719;28;20037;-72
2023/01/22 04:56:03;;;;;;;7.78;4.55;;;-0.30;99.90;;;;;;5050373;28;20056;-72
2023/01/22 04:58:29;;;;;;;8.40;4.32;;;-0.30;99.90;;;;;;5034670;28;20041;-72
2023/01/22 05:00:55;;;;;;;9.80;4.80;;;-0.20;99.90;;;;;;5031986;28;20095;-72
2023/01/22 05:03:21;;;;;;;9.15;4.57;;;-0.20;99.90;;;;;;5042565;28;20068;-72
2023/01/22 05:05:47;;;;;;;8.30;4.37;;;-0.20;99.90;;;;;;5033362;28;20436;-71
2023/01/22 05:08:12;;;;;;;8.37;4.37;;;-0.10;99.90;;;;;;5019977;28;20062;-71
2023/01/22 05:10:38;;;;;;;7.37;4.17;;;-0.10;99.90;;;;;;5048452;28;20126;-71
2023/01/22 05:13:05;;;;;;;8.53;4.60;;;0.00;99.90;;;;;;5052301;28;20045;-72
2023/01/22 05:15:31;;;;;;;9.10;4.57;;;0.10;99.90;;;;;;5050898;28;20664;-72
2023/01/22 05:17:57;;;;;;;10.30;4.68;;;0.10;99.90;;;;;;5049071;28;20037;-72
2023/01/22 05:20:24;;;;;;;6.83;4.07;;;0.10;99.90;;;;;;5050568;28;20044;-72
2023/01/22 05:22:50;;;;;;;6.50;4.00;;;0.20;99.90;;;;;;5052474;28;20175;-72
2023/01/22 05:25:16;;;;;;;7.50;4.80;;;0.20;99.90;;;;;;5034522;28;20044;-72
2023/01/22 05:27:42;;;;;;;9.03;4.27;;;0.20;99.90;;;;;;5050965;28;20088;-72
2023/01/22 05:30:09;;;;;;;7.97;4.40;;;0.10;99.90;;;;;;5056361;28;20128;-72
2023/01/22 05:32:34;;;;;;;6.50;3.80;;;0.20;99.90;;;;;;5051669;28;20425;-72
2023/01/22 05:35:00;;;;;;;8.63;4.00;;;0.20;99.90;;;;;;5056427;28;20055;-72
2023/01/22 05:37:26;;;;;;;7.85;4.38;;;0.20;99.90;;;;;;5031294;28;20141;-72
2023/01/22 05:39:52;;;;;;;11.83;4.40;;;0.30;99.90;;;;;;5045918;28;20069;-72
2023/01/22 05:42:18;;;;;;;7.43;3.60;;;0.30;99.90;;;;;;5048778;28;20590;-72
2023/01/22 05:44:43;;;;;;;10.97;4.37;;;0.30;99.90;;;;;;5050758;28;20040;-72
2023/01/22 05:47:11;;;;;;;8.17;3.70;;;0.40;99.90;;;;;;5047741;28;20565;-72
2023/01/22 05:49:36;;;;;;;6.80;3.80;;;0.30;99.90;;;;;;5034052;28;20047;-72
2023/01/22 05:52:02;;;;;;;9.67;4.07;;;0.40;99.90;;;;;;5035212;28;20045;-72
2023/01/22 05:54:28;;;;;;;9.30;4.03;;;0.30;99.90;;;;;;5035590;28;20123;-72
2023/01/22 05:56:54;;;;;;;9.23;4.13;;;0.40;99.90;;;;;;5044601;28;20045;-72
2023/01/22 05:59:19;;;;;;;10.13;3.97;;;0.30;99.90;;;;;;5035244;28;20508;-71
2023/01/22 06:01:45;;;;;;;8.27;4.40;;;0.30;99.90;;;;;;5032385;28;20037;-72
2023/01/22 06:04:10;;;;;;;10.17;4.83;;;0.40;99.90;;;;;;5051623;28;20108;-72
2023/01/22 06:06:36;;;;;;;10.53;5.43;;;0.40;99.90;;;;;;5033476;28;20064;-72
2023/01/22 06:09:02;;;;;;;11.10;4.80;;;0.40;99.90;;;;;;5034868;28;20416;-72
2023/01/22 06:11:28;;;;;;;10.27;4.60;;;0.40;99.90;;;;;;5022768;28;20045;-72
2023/01/22 06:13:54;;;;;;;7.07;4.47;;;0.40;99.90;;;;;;5044770;28;20041;-71
2023/01/22 06:16:20;;;;;;;8.00;4.43;;;0.40;99.90;;;;;;5054199;28;20044;-72
2023/01/22 06:18:45;;;;;;;6.50;3.88;;;0.40;99.90;;;;;;5047107;28;20033;-72
2023/01/22 06:21:11;;;;;;;6.10;4.10;;;0.40;99.90;;;;;;5030471;28;20131;-72
2023/01/22 06:23:37;;;;;;;6.83;4.17;;;0.40;99.90;;;;;;5031484;28;20412;-72
2023/01/22 06:26:04;;;;;;;6.40;3.60;;;0.40;99.90;;;;;;5038772;28;20045;-72
2023/01/22 06:28:29;;;;;;;9.57;4.32;;;0.40;99.90;;;;;;5038076;28;20062;-72
2023/01/22 06:31:01;;;;;;;6.67;4.07;;;0.40;99.90;;;;;;5048670;28;20041;-72
2023/01/22 06:33:26;;;;;;;8.70;3.92;;;0.40;99.90;;;;;;5049480;28;20045;-72
2023/01/22 06:35:56;;;;;;;9.20;3.90;;;0.40;99.90;;;;;;5033919;28;20067;-72
2023/01/22 06:38:22;;;;;;;7.53;3.08;;;0.40;99.90;;;;;;5049985;28;20711;-72
2023/01/22 06:40:56;;;;;;;7.03;5.07;;;0.40;99.90;;;;;;5028883;28;20379;-72
2023/01/22 06:43:23;;;;;;;5.95;3.17;;;0.50;99.90;;;;;;5046761;28;20067;-72
2023/01/22 06:45:49;;;;;;;8.43;3.20;;;0.40;99.90;;;;;;5049684;28;20607;-72
2023/01/22 06:48:15;;;;;;;6.00;3.10;;;0.50;99.90;;;;;;5051725;28;20226;-72
2023/01/22 06:50:41;;;;;;;7.65;2.97;;;0.50;99.90;;;;;;5045212;28;20064;-72
2023/01/22 06:53:07;;;;;;;8.15;3.08;;;0.40;99.90;;;;;;5030250;28;20056;-72
2023/01/22 06:55:33;;;;;;;6.03;3.27;;;0.50;99.90;;;;;;5058441;28;20040;-72
2023/01/22 06:58:01;;;;;;;7.40;2.90;;;0.50;99.90;;;;;;5014378;28;20055;-72
2023/01/22 07:00:27;;;;;;;8.37;2.67;;;0.50;99.90;;;;;;5046187;28;20037;-72
2023/01/22 07:02:53;;;;;;;6.77;3.00;;;0.50;99.90;;;;;;5048976;28;20140;-72
2023/01/22 07:05:19;;;;;;;4.97;2.60;;;0.40;99.90;;;;;;5031897;28;20055;-72
2023/01/22 07:07:46;;;;;;;8.48;3.10;;;0.40;99.90;;;;;;5032459;28;20057;-72
2023/01/22 07:10:12;;;;;;;4.72;2.90;;;0.40;99.90;;;;;;5066281;28;20653;-72
2023/01/22 07:12:38;;;;;;;5.32;2.95;;;0.40;99.90;;;;;;5065134;28;20057;-72
2023/01/22 07:15:06;;;;;;;5.43;3.17;;;0.40;99.90;;;;;;5049178;28;20041;-72
2023/01/22 07:17:33;;;;;;;6.07;3.17;;;0.40;99.90;;;;;;5047004;28;20044;-72
2023/01/22 07:19:58;;;;;;;8.27;3.80;;;0.40;99.90;;;;;;5039580;28;20110;-72
2023/01/22 07:22:24;;;;;;;8.10;3.10;;;0.40;99.90;;;;;;5056414;28;20044;-72
2023/01/22 07:24:51;;;;;;;8.23;3.50;;;0.40;99.90;;;;;;5048399;28;20049;-72
2023/01/22 07:27:16;;;;;;;8.18;3.30;;;0.40;99.90;;;;;;5009630;28;20042;-72
2023/01/22 07:29:42;;;;;;;8.37;4.30;;;0.40;99.90;;;;;;5035302;28;20095;-72
2023/01/22 07:32:08;;;;;;;9.00;3.60;;;0.40;99.90;;;;;;5015242;28;20048;-72
2023/01/22 07:34:33;;;;;;;7.10;4.17;;;0.50;99.90;;;;;;5050510;28;20102;-72
2023/01/22 07:37:00;;;;;;;8.23;3.87;;;0.50;99.90;;;;;;5032541;28;20135;-72
2023/01/22 07:39:26;;;;;;;5.95;3.50;;;0.50;99.90;;;;;;5048326;28;20439;-72
2023/01/22 07:41:52;;;;;;;6.93;4.07;;;0.50;99.90;;;;;;5054964;28;20032;-71
2023/01/22 07:44:17;;;;;;;6.03;3.77;;;0.50;99.90;;;;;;5031482;28;20084;-72
2023/01/22 07:46:43;;;;;;;9.67;3.70;;;0.40;99.90;;;;;;5037024;28;20396;-72
2023/01/22 07:49:10;;;;;;;9.87;3.53;;;0.50;99.90;;;;;;5033167;28;20436;-72
2023/01/22 07:51:36;;;;;;;9.70;3.50;;;0.50;99.90;;;;;;5037190;28;20041;-72
2023/01/22 07:54:02;;;;;;;10.43;3.33;;;0.50;99.90;;;;;;5040547;28;20050;-72
2023/01/22 07:56:27;;;;;;;6.30;3.47;;;0.50;99.90;;;;;;5036285;28;20504;-72
2023/01/22 07:58:53;;;;;;;5.40;3.10;;;0.50;99.90;;;;;;5038234;28;20045;-72
2023/01/22 08:01:19;;;;;;;6.73;2.83;;;0.50;99.90;;;;;;5049811;28;20261;-72
2023/01/22 08:03:45;;;;;;;5.83;2.90;;;0.50;99.90;;;;;;5044699;28;20041;-72
2023/01/22 08:06:15;;;;;;;8.77;3.43;;;0.50;99.90;;;;;;5052704;28;20132;-72
2023/01/22 08:08:41;;;;;;;6.07;3.35;;;0.50;99.90;;;;;;5027003;28;20052;-72
2023/01/22 08:11:07;;;;;;;6.53;3.20;;;0.50;99.90;;;;;;5048082;28;20049;-72
2023/01/22 08:13:33;;;;;;;7.47;3.57;;;0.50;99.90;;;;;;5041087;28;20469;-72
2023/01/22 08:15:59;;;;;;;6.03;3.07;;;0.50;99.90;;;;;;5046725;28;20378;-72
2023/01/22 08:18:24;;;;;;;6.73;3.40;;;0.50;99.90;;;;;;5012236;28;20044;-72
2023/01/22 08:20:50;;;;;;;8.30;3.13;;;0.60;99.90;;;;;;5050646;28;20072;-72
2023/01/22 08:23:16;;;;;;;9.00;3.17;;;0.60;99.90;;;;;;5068075;28;20821;-72
2023/01/22 08:25:42;;;;;;;5.00;3.13;;;0.60;99.90;;;;;;5032043;28;20077;-72
2023/01/22 08:28:07;;;;;;;7.43;3.33;;;0.60;99.90;;;;;;5036437;28;20041;-72
2023/01/22 08:30:34;;;;;;;4.57;2.83;;;0.60;99.90;;;;;;5045346;28;20132;-72
2023/01/22 08:33:01;;;;;;;6.75;3.45;;;0.70;99.90;;;;;;5036691;28;20083;-72
2023/01/22 08:35:28;;;;;;;6.10;3.03;;;0.70;99.90;;;;;;5045217;28;20033;-72
2023/01/22 08:37:57;;;;;;;7.55;3.75;;;0.70;99.90;;;;;;5012777;28;20361;-72
2023/01/22 08:40:23;;;;;;;7.10;4.07;;;0.70;99.90;;;;;;5030045;28;20045;-72
2023/01/22 08:42:53;;;;;;;8.70;3.67;;;0.80;99.90;;;;;;5019834;28;20048;-72
2023/01/22 08:45:19;;;;;;;7.60;3.50;;;0.80;99.90;;;;;;5032046;28;20060;-72
2023/01/22 08:47:45;;;;;;;7.00;3.22;;;0.70;99.90;;;;;;5053175;28;20053;-72
2023/01/22 08:50:11;;;;;;;7.40;3.30;;;0.80;99.90;;;;;;5034367;28;20124;-72
2023/01/22 08:52:37;;;;;;;6.15;3.35;;;0.80;99.90;;;;;;5045011;28;20171;-72
2023/01/22 08:55:05;;;;;;;8.57;3.50;;;0.80;99.90;;;;;;5034851;28;20045;-72
2023/01/22 08:57:31;;;;;;;7.68;3.38;;;0.80;99.90;;;;;;5030954;28;20059;-72
2023/01/22 08:59:57;;;;;;;6.10;3.03;;;0.90;99.90;;;;;;5048981;28;20044;-72
2023/01/22 09:02:22;;;;;;;8.20;3.23;;;0.90;99.90;;;;;;5032663;28;20447;-72
2023/01/22 09:04:48;;;;;;;5.67;3.67;;;0.90;99.90;;;;;;5046160;28;20314;-72
2023/01/22 09:07:14;;;;;;;7.27;3.60;;;0.90;99.90;;;;;;5067234;28;20054;-72
2023/01/22 09:09:39;;;;;;;7.53;3.87;;;0.90;99.90;;;;;;5048757;28;20048;-72
2023/01/22 09:12:05;;;;;;;6.40;3.60;;;0.90;99.90;;;;;;5050722;28;20264;-72
2023/01/22 09:14:34;;;;;;;7.30;3.87;;;0.90;99.90;;;;;;5050333;28;20075;-72
2023/01/22 09:17:00;;;;;;;5.53;3.67;;;1.00;99.90;;;;;;5048927;28;20496;-72
2023/01/22 09:19:25;;;;;;;5.30;3.63;;;1.00;99.90;;;;;;5033761;28;20044;-72
2023/01/22 09:21:51;;;;;;;6.23;3.93;;;1.00;99.90;;;;;;5035898;28;20041;-72
2023/01/22 09:24:17;;;;;;;9.53;4.27;;;1.10;99.90;;;;;;5017081;28;20137;-72
2023/01/22 09:26:42;;;;;;;8.73;4.10;;;1.10;99.90;;;;;;5049941;28;20045;-72
2023/01/22 09:29:08;;;;;;;7.47;3.90;;;1.10;99.90;;;;;;5050964;28;20036;-72
2023/01/22 09:31:35;;;;;;;7.47;3.70;;;1.10;99.90;;;;;;5033112;28;20049;-72
2023/01/22 09:34:02;;;;;;;9.07;4.30;;;1.10;99.90;;;;;;5047350;28;20075;-72
2023/01/22 09:36:28;;;;;;;7.82;5.00;;;1.20;99.90;;;;;;5012026;28;20063;-72
2023/01/22 09:38:54;;;;;;;9.23;4.35;;;1.10;99.90;;;;;;5068443;28;20044;-72
2023/01/22 09:41:33;;;;;;;9.37;4.73;;;1.20;99.90;;;;;;5056252;28;20040;-73
2023/01/22 09:44:03;;;;;;;10.82;4.20;;;1.20;99.90;;;;;;5063981;28;20052;-72
2023/01/22 09:46:38;;;;;;;6.85;4.40;;;1.30;99.90;;;;;;5045811;28;20044;-73
2023/01/22 09:49:20;;;;;;;15.20;5.15;;;1.30;99.90;;;;;;5050262;28;20102;-72
2023/01/22 09:51:52;;;;;;;10.85;5.35;;;1.30;99.90;;;;;;5047813;28;20048;-72
2023/01/22 09:54:18;;;;;;;7.15;5.00;;;1.30;99.90;;;;;;5039173;28;20041;-72
2023/01/22 09:56:49;;;;;;;8.47;5.10;;;1.40;99.90;;;;;;5022566;28;20068;-73
2023/01/22 09:59:25;;;;;;;10.32;5.57;;;1.40;99.90;;;;;;5051829;28;20842;-73
2023/01/22 10:02:15;;;;;;;7.47;4.95;;;1.50;99.90;;;;;;5052220;28;20045;-73
2023/01/22 10:04:44;;;;;;;9.43;5.28;;;1.40;99.90;;;;;;5052575;28;20072;-73
2023/01/22 10:07:35;;;;;;;7.57;5.20;;;1.40;99.90;;;;;;5051305;28;20112;-72
2023/01/22 10:10:19;;;;;;;8.00;4.93;;;1.40;99.90;;;;;;5047442;28;20047;-73
2023/01/22 10:13:09;;;;;;;8.90;4.90;;;1.40;99.90;;;;;;5058548;28;20040;-73
2023/01/22 10:15:35;;;;;;;9.00;4.63;;;1.40;99.90;;;;;;5038112;28;20053;-72
2023/01/22 10:18:11;;;;;;;9.90;5.03;;;1.40;99.90;;;;;;5052008;28;20386;-73
2023/01/22 10:20:37;;;;;;;11.18;5.80;;;1.50;99.90;;;;;;5051093;28;20048;-73
2023/01/22 10:23:17;;;;;;;8.65;5.50;;;1.50;99.90;;;;;;5052647;28;20131;-72
2023/01/22 10:25:43;;;;;;;8.13;5.13;;;1.50;99.90;;;;;;5051410;28;20045;-72
2023/01/22 10:28:09;;;;;;;9.67;5.37;;;1.50;99.90;;;;;;5051752;28;20098;-72
2023/01/22 10:30:47;;;;;;;10.05;5.88;;;1.60;99.90;;;;;;5055265;28;20047;-72
2023/01/22 10:33:21;;;;;;;7.13;5.03;;;1.70;99.90;;;;;;5055972;28;20855;-72
2023/01/22 10:35:49;;;;;;;6.75;5.43;;;1.80;99.90;;;;;;5054772;28;20112;-72
2023/01/22 10:38:29;;;;;;;7.90;5.45;;;1.80;99.90;;;;;;5051058;28;20044;-72
2023/01/22 10:41:01;;;;;;;6.95;5.55;;;1.90;99.90;;;;;;5053555;28;20029;-72
2023/01/22 10:43:35;;;;;;;9.48;5.55;;;1.90;99.90;;;;;;5059046;28;20436;-72
2023/01/22 10:46:15;;;;;;;8.07;6.20;;;1.90;99.90;;;;;;5053208;28;20048;-72
2023/01/22 10:48:41;;;;;;;8.95;5.35;;;1.90;99.90;;;;;;5051488;28;20418;-72
2023/01/22 10:51:19;;;;;;;9.73;5.77;;;1.90;99.90;;;;;;5049261;28;20036;-73
2023/01/22 10:53:50;;;;;;;10.05;6.00;;;1.80;99.90;;;;;;5051796;28;20056;-72
2023/01/22 10:56:28;;;;;;;12.85;6.40;;;1.80;99.90;;;;;;5052256;28;20033;-72
2023/01/22 10:58:55;;;;;;;10.32;6.13;;;1.70;99.90;;;;;;5058135;28;20120;-73
2023/01/22 11:01:26;;;;;;;9.85;6.38;;;1.70;99.90;;;;;;5038806;28;20041;-73
2023/01/22 11:03:52;;;;;;;10.82;6.68;;;1.70;99.90;;;;;;5056862;28;20152;-73
2023/01/22 11:06:25;;;;;;;8.83;6.00;;;1.70;99.90;;;;;;5051266;28;20636;-73
2023/01/22 11:08:59;;;;;;;11.27;6.28;;;1.70;99.90;;;;;;5052642;28;20053;-73
2023/01/22 11:11:34;;;;;;;8.00;5.75;;;1.70;99.90;;;;;;5056720;28;20045;-73
2023/01/22 11:14:03;;;;;;;;;;;1.70;99.90;;;;;;5048811;28;20041;-73
2023/01/22 11:16:33;;;;;;;7.35;5.13;;;1.70;99.90;;;;;;5052995;28;19959;-72
2023/01/22 11:19:05;;;;;;;11.10;5.60;;;1.70;99.90;;;;;;5054175;28;20067;-72
2023/01/22 11:21:39;;;;;;;9.75;5.25;;;1.70;99.90;;;;;;5047487;28;20033;-72
2023/01/22 11:24:46;;;;;;;8.80;5.70;;;1.70;99.90;;;;;;5045850;28;20143;-72
2023/01/22 11:27:11;;;;;;;;;;;1.60;99.90;;;;;;5032228;28;20606;-72
2023/01/22 11:29:52;;;;;;;6.70;4.33;;;1.60;99.90;;;;;;5056389;28;19959;-72
2023/01/22 11:32:51;;;;;;;9.10;4.72;;;1.60;99.90;;;;;;5057956;28;20041;-72
2023/01/22 11:35:28;;;;;;;8.73;5.13;;;1.70;99.90;;;;;;5057529;28;20140;-71
2023/01/22 11:38:15;;;;;;;10.45;5.40;;;1.70;99.90;;;;;;5059040;28;20100;-71
2023/01/22 11:40:57;;;;;;;7.28;5.03;;;1.70;99.90;;;;;;5057349;28;20036;-71
2023/01/22 11:43:39;;;;;;;7.93;5.05;;;1.70;99.90;;;;;;5064183;28;20048;-71
2023/01/22 11:46:20;;;;;;;10.00;5.97;;;1.70;99.90;;;;;;5057835;28;20102;-71
2023/01/22 11:48:58;;;;;;;7.20;5.57;;;1.80;99.90;;;;;;5067854;28;20393;-71
2023/01/22 11:51:38;;;;;;;9.45;5.45;;;1.90;99.90;;;;;;5056082;28;20378;-71
2023/01/22 11:54:29;;;;;;;6.55;4.70;;;2.00;99.90;;;;;;5052962;28;20144;-71
2023/01/22 11:57:26;;;;;;;6.65;4.50;;;2.10;99.90;;;;;;5052725;28;20065;-72
2023/01/22 12:00:15;;;;;;;6.95;4.60;;;2.10;99.90;;;;;;5041221;28;20392;-72
2023/01/22 12:02:44;;;;;;;8.00;4.88;;;2.20;99.90;;;;;;5058095;28;20037;-71
2023/01/22 12:05:46;;;;;;;8.98;5.38;;;2.10;99.90;;;;;;5053996;28;20617;-71
2023/01/22 12:08:47;;;;;;;13.32;7.22;;;2.20;99.90;;;;;;5049867;28;20461;-72
2023/01/22 12:11:32;;;;;;;13.98;8.93;;;2.20;99.90;;;;;;5013982;28;20045;-72
2023/01/22 12:14:09;;;;;;;20.05;10.73;;;2.20;99.90;;;;;;5078278;28;20121;-72
2023/01/22 12:16:56;;;;;;;8.65;5.63;;;2.20;99.90;;;;;;5058031;28;20045;-73
2023/01/22 12:19:34;;;;;;;11.23;6.22;;;2.20;99.90;;;;;;5040804;28;20041;-72
2023/01/22 12:22:45;;;;;;;8.10;5.68;;;2.20;99.90;;;;;;5061988;28;20080;-72
2023/01/22 12:25:32;;;;;;;9.43;5.40;;;2.20;99.90;;;;;;5054312;28;20070;-72
2023/01/22 12:28:12;;;;;;;16.02;6.53;;;2.20;99.90;;;;;;5061816;28;20052;-72
2023/01/22 12:31:09;;;;;;;9.60;5.63;;;2.30;99.90;;;;;;5058500;28;20053;-72
2023/01/22 12:33:40;;;;;;;8.45;6.10;;;2.30;99.90;;;;;;5051747;28;20556;-72
2023/01/22 12:36:11;;;;;;;7.88;6.13;;;2.30;99.90;;;;;;5051546;28;20046;-72
2023/01/22 12:38:55;;;;;;;9.38;5.53;;;2.40;99.90;;;;;;5053777;28;20474;-72
2023/01/22 12:41:48;;;;;;;8.32;5.65;;;2.40;99.90;;;;;;5055311;28;20045;-72
2023/01/22 12:44:23;;;;;;;9.27;5.68;;;2.50;99.90;;;;;;5059331;28;20044;-72
2023/01/22 12:47:00;;;;;;;10.52;5.63;;;2.50;99.90;;;;;;5057223;28;20045;-72
2023/01/22 12:49:26;;;;;;;9.27;5.55;;;2.50;99.90;;;;;;5052146;28;20049;-73
2023/01/22 12:51:54;;;;;;;7.00;5.13;;;2.50;99.90;;;;;;5054141;28;20069;-72
2023/01/22 12:54:24;;;;;;;9.35;5.97;;;2.60;99.90;;;;;;5057766;28;20052;-71
2023/01/22 12:56:52;;;;;;;11.63;6.03;;;2.60;99.90;;;;;;5067965;28;20045;-73
2023/01/22 12:59:37;;;;;;;11.80;6.50;;;2.60;99.90;;;;;;5043300;28;20033;-72
2023/01/22 13:02:25;;;;;;;8.50;5.40;;;2.60;99.90;;;;;;5068095;28;20041;-72
2023/01/22 13:04:55;;;;;;;8.05;6.35;;;2.60;99.90;;;;;;5067122;28;20037;-72
2023/01/22 13:07:22;;;;;;;8.90;5.65;;;2.50;99.90;;;;;;5059508;28;20057;-72
2023/01/22 13:10:20;;;;;;;15.52;10.40;;;2.60;99.90;;;;;;5065515;28;20041;-72